sensor_id;sensor_type;location;lat;lon;timestamp;P1;durP1;ratioP1;P2;durP2;ratioP2
43216;SDS011;60511;42.686;23.300;2023-04-03T00:01:01;1.83;;;0.95;;
43216;SDS011;60511;42.686;23.300;2023-04-03T00:03:02;1.77;;;1.40;;
43216;SDS011;60511;42.686;23.300;2023-04-03T00:05:03;1.77;;;1.25;;
43216;SDS011;60511;42.686;23.300;2023-04-03T00:07:04;1.25;;;1.00;;
43216;SDS011;60511;42.686;23.300;2023-04-03T00:09:05;1.40;;;1.02;;
43216;SDS011;60511;42.686;23.300;2023-04-03T00:11:05;2.55;;;1.35;;
43216;SDS011;60511;42.686;23.300;2023-04-03T00:13:06;1.55;;;1.10;;
43216;SDS011;60511;42.686;23.300;2023-04-03T00:15:07;1.48;;;1.10;;
43216;SDS011;60511;42.686;23.300;2023-04-03T00:17:08;1.48;;;1.00;;
43216;SDS011;60511;42.686;23.300;2023-04-03T00:19:08;1.35;;;1.10;;
43216;SDS011;60511;42.686;23.300;2023-04-03T00:21:12;2.25;;;1.17;;
43216;SDS011;60511;42.686;23.300;2023-04-03T00:23:13;2.40;;;1.20;;
43216;SDS011;60511;42.686;23.300;2023-04-03T00:25:14;1.05;;;0.88;;
43216;SDS011;60511;42.686;23.300;2023-04-03T00:27:14;1.60;;;1.00;;
43216;SDS011;60511;42.686;23.300;2023-04-03T00:29:15;2.42;;;1.38;;
43216;SDS011;60511;42.686;23.300;2023-04-03T00:31:16;1.67;;;1.10;;
43216;SDS011;60511;42.686;23.300;2023-04-03T00:33:16;1.08;;;0.98;;
43216;SDS011;60511;42.686;23.300;2023-04-03T00:35:18;1.52;;;1.02;;
43216;SDS011;60511;42.686;23.300;2023-04-03T00:37:19;2.75;;;1.30;;
43216;SDS011;60511;42.686;23.300;2023-04-03T00:39:20;1.35;;;1.08;;
43216;SDS011;60511;42.686;23.300;2023-04-03T00:41:20;1.60;;;1.20;;
43216;SDS011;60511;42.686;23.300;2023-04-03T00:43:22;1.63;;;1.10;;
43216;SDS011;60511;42.686;23.300;2023-04-03T00:47:33;1.52;;;1.08;;
43216;SDS011;60511;42.686;23.300;2023-04-03T00:49:33;1.25;;;0.95;;
43216;SDS011;60511;42.686;23.300;2023-04-03T00:51:34;1.50;;;1.15;;
43216;SDS011;60511;42.686;23.300;2023-04-03T00:53:37;1.23;;;1.00;;
43216;SDS011;60511;42.686;23.300;2023-04-03T00:55:41;1.52;;;1.23;;
43216;SDS011;60511;42.686;23.300;2023-04-03T00:57:43;1.23;;;1.00;;
43216;SDS011;60511;42.686;23.300;2023-04-03T00:59:46;1.75;;;1.02;;
43216;SDS011;60511;42.686;23.300;2023-04-03T01:01:50;0.88;;;0.75;;
43216;SDS011;60511;42.686;23.300;2023-04-03T01:03:52;1.73;;;1.20;;
43216;SDS011;60511;42.686;23.300;2023-04-03T01:05:53;2.00;;;1.00;;
43216;SDS011;60511;42.686;23.300;2023-04-03T01:07:53;1.98;;;1.42;;
43216;SDS011;60511;42.686;23.300;2023-04-03T01:09:56;1.70;;;1.10;;
43216;SDS011;60511;42.686;23.300;2023-04-03T01:14:25;1.42;;;1.17;;
43216;SDS011;60511;42.686;23.300;2023-04-03T01:16:26;1.85;;;1.15;;
43216;SDS011;60511;42.686;23.300;2023-04-03T01:18:27;2.25;;;1.25;;
43216;SDS011;60511;42.686;23.300;2023-04-03T01:22:34;1.23;;;1.05;;
43216;SDS011;60511;42.686;23.300;2023-04-03T01:24:42;1.67;;;0.88;;
43216;SDS011;60511;42.686;23.300;2023-04-03T01:26:43;1.73;;;1.20;;
43216;SDS011;60511;42.686;23.300;2023-04-03T01:28:43;1.50;;;1.05;;
43216;SDS011;60511;42.686;23.300;2023-04-03T01:30:48;1.67;;;1.25;;
43216;SDS011;60511;42.686;23.300;2023-04-03T01:32:56;1.73;;;1.25;;
43216;SDS011;60511;42.686;23.300;2023-04-03T01:34:57;2.03;;;1.10;;
43216;SDS011;60511;42.686;23.300;2023-04-03T01:36:57;2.05;;;0.90;;
43216;SDS011;60511;42.686;23.300;2023-04-03T01:38:58;1.40;;;1.30;;
43216;SDS011;60511;42.686;23.300;2023-04-03T01:41:00;1.23;;;0.73;;
43216;SDS011;60511;42.686;23.300;2023-04-03T01:43:01;1.20;;;1.10;;
43216;SDS011;60511;42.686;23.300;2023-04-03T01:45:01;1.05;;;0.77;;
43216;SDS011;60511;42.686;23.300;2023-04-03T01:47:02;1.63;;;1.27;;
43216;SDS011;60511;42.686;23.300;2023-04-03T01:49:05;1.27;;;0.80;;
43216;SDS011;60511;42.686;23.300;2023-04-03T01:51:05;1.77;;;0.85;;
43216;SDS011;60511;42.686;23.300;2023-04-03T01:53:06;2.05;;;1.08;;
43216;SDS011;60511;42.686;23.300;2023-04-03T01:55:07;1.27;;;1.00;;
43216;SDS011;60511;42.686;23.300;2023-04-03T01:57:07;1.65;;;1.23;;
43216;SDS011;60511;42.686;23.300;2023-04-03T01:59:08;1.25;;;1.05;;
43216;SDS011;60511;42.686;23.300;2023-04-03T02:01:08;1.27;;;0.98;;
43216;SDS011;60511;42.686;23.300;2023-04-03T02:03:08;2.10;;;1.30;;
43216;SDS011;60511;42.686;23.300;2023-04-03T02:05:09;1.15;;;0.80;;
43216;SDS011;60511;42.686;23.300;2023-04-03T02:07:10;1.50;;;0.88;;
43216;SDS011;60511;42.686;23.300;2023-04-03T02:09:10;1.65;;;1.20;;
43216;SDS011;60511;42.686;23.300;2023-04-03T02:11:11;1.33;;;1.23;;
43216;SDS011;60511;42.686;23.300;2023-04-03T02:13:11;1.65;;;1.00;;
43216;SDS011;60511;42.686;23.300;2023-04-03T02:15:11;1.85;;;1.25;;
43216;SDS011;60511;42.686;23.300;2023-04-03T02:17:12;0.80;;;0.70;;
43216;SDS011;60511;42.686;23.300;2023-04-03T02:19:12;1.25;;;1.08;;
43216;SDS011;60511;42.686;23.300;2023-04-03T02:21:13;3.15;;;1.25;;
43216;SDS011;60511;42.686;23.300;2023-04-03T02:23:13;0.77;;;0.73;;
43216;SDS011;60511;42.686;23.300;2023-04-03T02:25:14;1.13;;;0.82;;
43216;SDS011;60511;42.686;23.300;2023-04-03T02:27:14;1.23;;;0.82;;
43216;SDS011;60511;42.686;23.300;2023-04-03T02:29:16;1.77;;;1.00;;
43216;SDS011;60511;42.686;23.300;2023-04-03T02:31:16;1.08;;;0.98;;
43216;SDS011;60511;42.686;23.300;2023-04-03T02:33:17;1.02;;;0.70;;
43216;SDS011;60511;42.686;23.300;2023-04-03T02:35:18;1.33;;;0.90;;
43216;SDS011;60511;42.686;23.300;2023-04-03T02:37:18;1.13;;;0.95;;
43216;SDS011;60511;42.686;23.300;2023-04-03T02:39:18;1.90;;;1.10;;
43216;SDS011;60511;42.686;23.300;2023-04-03T02:41:19;1.65;;;0.88;;
43216;SDS011;60511;42.686;23.300;2023-04-03T02:43:21;2.00;;;1.00;;
43216;SDS011;60511;42.686;23.300;2023-04-03T02:45:21;1.50;;;0.90;;
43216;SDS011;60511;42.686;23.300;2023-04-03T02:47:21;1.52;;;0.98;;
43216;SDS011;60511;42.686;23.300;2023-04-03T02:49:22;1.15;;;0.90;;
43216;SDS011;60511;42.686;23.300;2023-04-03T02:51:22;1.20;;;0.95;;
43216;SDS011;60511;42.686;23.300;2023-04-03T02:53:23;1.80;;;1.00;;
43216;SDS011;60511;42.686;23.300;2023-04-03T02:55:23;1.60;;;1.20;;
43216;SDS011;60511;42.686;23.300;2023-04-03T02:57:24;1.35;;;1.00;;
43216;SDS011;60511;42.686;23.300;2023-04-03T02:59:24;1.15;;;0.77;;
43216;SDS011;60511;42.686;23.300;2023-04-03T03:01:25;2.50;;;1.00;;
43216;SDS011;60511;42.686;23.300;2023-04-03T03:03:28;8.40;;;2.17;;
43216;SDS011;60511;42.686;23.300;2023-04-03T03:05:29;1.27;;;0.82;;
43216;SDS011;60511;42.686;23.300;2023-04-03T03:07:30;1.00;;;0.90;;
43216;SDS011;60511;42.686;23.300;2023-04-03T03:09:30;1.27;;;0.98;;
43216;SDS011;60511;42.686;23.300;2023-04-03T03:11:30;1.80;;;1.08;;
43216;SDS011;60511;42.686;23.300;2023-04-03T03:13:31;1.60;;;1.00;;
43216;SDS011;60511;42.686;23.300;2023-04-03T03:15:32;2.25;;;1.10;;
43216;SDS011;60511;42.686;23.300;2023-04-03T03:17:32;1.27;;;1.00;;
43216;SDS011;60511;42.686;23.300;2023-04-03T03:19:33;2.13;;;1.25;;
43216;SDS011;60511;42.686;23.300;2023-04-03T03:21:33;2.15;;;0.73;;
43216;SDS011;60511;42.686;23.300;2023-04-03T03:23:33;0.90;;;0.77;;
43216;SDS011;60511;42.686;23.300;2023-04-03T03:25:37;1.73;;;0.90;;
43216;SDS011;60511;42.686;23.300;2023-04-03T03:27:39;2.75;;;1.48;;
43216;SDS011;60511;42.686;23.300;2023-04-03T03:29:41;1.52;;;1.05;;
43216;SDS011;60511;42.686;23.300;2023-04-03T03:31:42;1.88;;;1.15;;
43216;SDS011;60511;42.686;23.300;2023-04-03T03:33:42;1.27;;;0.80;;
43216;SDS011;60511;42.686;23.300;2023-04-03T03:35:43;1.10;;;1.00;;
43216;SDS011;60511;42.686;23.300;2023-04-03T03:37:43;1.23;;;0.90;;
43216;SDS011;60511;42.686;23.300;2023-04-03T03:39:44;2.10;;;1.25;;
43216;SDS011;60511;42.686;23.300;2023-04-03T03:41:44;1.23;;;1.05;;
43216;SDS011;60511;42.686;23.300;2023-04-03T03:43:45;0.90;;;0.65;;
43216;SDS011;60511;42.686;23.300;2023-04-03T03:45:46;1.30;;;0.88;;
43216;SDS011;60511;42.686;23.300;2023-04-03T03:47:50;0.98;;;0.80;;
43216;SDS011;60511;42.686;23.300;2023-04-03T03:49:50;1.85;;;1.30;;
43216;SDS011;60511;42.686;23.300;2023-04-03T03:51:51;1.38;;;1.10;;
43216;SDS011;60511;42.686;23.300;2023-04-03T03:53:51;1.80;;;0.98;;
43216;SDS011;60511;42.686;23.300;2023-04-03T03:55:52;1.00;;;0.88;;
43216;SDS011;60511;42.686;23.300;2023-04-03T03:57:52;0.88;;;0.70;;
43216;SDS011;60511;42.686;23.300;2023-04-03T03:59:53;2.25;;;1.00;;
43216;SDS011;60511;42.686;23.300;2023-04-03T04:01:53;1.70;;;1.05;;
43216;SDS011;60511;42.686;23.300;2023-04-03T04:03:54;1.20;;;0.80;;
43216;SDS011;60511;42.686;23.300;2023-04-03T04:05:55;2.35;;;1.20;;
43216;SDS011;60511;42.686;23.300;2023-04-03T04:07:55;1.30;;;1.13;;
43216;SDS011;60511;42.686;23.300;2023-04-03T04:09:56;1.75;;;1.20;;
43216;SDS011;60511;42.686;23.300;2023-04-03T04:11:56;1.88;;;1.40;;
43216;SDS011;60511;42.686;23.300;2023-04-03T04:13:56;1.10;;;0.95;;
43216;SDS011;60511;42.686;23.300;2023-04-03T04:15:57;2.08;;;0.90;;
43216;SDS011;60511;42.686;23.300;2023-04-03T04:17:57;1.77;;;1.10;;
43216;SDS011;60511;42.686;23.300;2023-04-03T04:19:57;1.20;;;1.10;;
43216;SDS011;60511;42.686;23.300;2023-04-03T04:21:58;1.17;;;1.08;;
43216;SDS011;60511;42.686;23.300;2023-04-03T04:23:58;1.30;;;1.00;;
43216;SDS011;60511;42.686;23.300;2023-04-03T04:25:59;1.25;;;0.93;;
43216;SDS011;60511;42.686;23.300;2023-04-03T04:27:59;1.80;;;1.20;;
43216;SDS011;60511;42.686;23.300;2023-04-03T04:30:00;1.98;;;1.33;;
43216;SDS011;60511;42.686;23.300;2023-04-03T04:32:01;1.95;;;1.70;;
43216;SDS011;60511;42.686;23.300;2023-04-03T04:34:02;1.50;;;0.90;;
43216;SDS011;60511;42.686;23.300;2023-04-03T04:36:03;1.50;;;1.30;;
43216;SDS011;60511;42.686;23.300;2023-04-03T04:38:03;1.42;;;0.95;;
43216;SDS011;60511;42.686;23.300;2023-04-03T04:40:04;1.63;;;1.08;;
43216;SDS011;60511;42.686;23.300;2023-04-03T04:42:05;2.15;;;1.20;;
43216;SDS011;60511;42.686;23.300;2023-04-03T04:44:07;1.75;;;1.35;;
43216;SDS011;60511;42.686;23.300;2023-04-03T04:46:08;1.80;;;1.10;;
43216;SDS011;60511;42.686;23.300;2023-04-03T04:48:12;1.90;;;1.00;;
43216;SDS011;60511;42.686;23.300;2023-04-03T04:50:12;1.58;;;1.38;;
43216;SDS011;60511;42.686;23.300;2023-04-03T04:52:13;2.58;;;1.52;;
43216;SDS011;60511;42.686;23.300;2023-04-03T04:54:13;1.83;;;1.30;;
43216;SDS011;60511;42.686;23.300;2023-04-03T04:56:14;1.67;;;1.30;;
43216;SDS011;60511;42.686;23.300;2023-04-03T04:58:16;2.47;;;1.35;;
43216;SDS011;60511;42.686;23.300;2023-04-03T05:00:16;2.83;;;1.40;;
43216;SDS011;60511;42.686;23.300;2023-04-03T05:02:17;1.55;;;1.45;;
43216;SDS011;60511;42.686;23.300;2023-04-03T05:04:17;1.70;;;1.20;;
43216;SDS011;60511;42.686;23.300;2023-04-03T05:06:18;1.38;;;0.98;;
43216;SDS011;60511;42.686;23.300;2023-04-03T05:08:18;2.35;;;1.70;;
43216;SDS011;60511;42.686;23.300;2023-04-03T05:10:19;1.80;;;1.38;;
43216;SDS011;60511;42.686;23.300;2023-04-03T05:12:19;1.50;;;1.20;;
43216;SDS011;60511;42.686;23.300;2023-04-03T05:14:19;2.20;;;1.45;;
43216;SDS011;60511;42.686;23.300;2023-04-03T05:16:20;1.45;;;1.08;;
43216;SDS011;60511;42.686;23.300;2023-04-03T05:18:20;1.40;;;1.27;;
43216;SDS011;60511;42.686;23.300;2023-04-03T05:20:20;2.33;;;1.70;;
43216;SDS011;60511;42.686;23.300;2023-04-03T05:22:21;2.17;;;1.77;;
43216;SDS011;60511;42.686;23.300;2023-04-03T05:24:21;1.60;;;1.33;;
43216;SDS011;60511;42.686;23.300;2023-04-03T05:26:22;2.03;;;1.27;;
43216;SDS011;60511;42.686;23.300;2023-04-03T05:28:22;1.55;;;1.40;;
43216;SDS011;60511;42.686;23.300;2023-04-03T05:30:23;1.98;;;1.65;;
43216;SDS011;60511;42.686;23.300;2023-04-03T05:32:23;3.92;;;2.00;;
43216;SDS011;60511;42.686;23.300;2023-04-03T05:34:26;2.35;;;1.60;;
43216;SDS011;60511;42.686;23.300;2023-04-03T05:36:26;2.10;;;1.65;;
43216;SDS011;60511;42.686;23.300;2023-04-03T05:38:27;2.47;;;1.70;;
43216;SDS011;60511;42.686;23.300;2023-04-03T05:40:28;2.72;;;1.60;;
43216;SDS011;60511;42.686;23.300;2023-04-03T05:42:29;4.90;;;1.95;;
43216;SDS011;60511;42.686;23.300;2023-04-03T05:44:29;3.58;;;1.75;;
43216;SDS011;60511;42.686;23.300;2023-04-03T05:46:30;2.22;;;2.03;;
43216;SDS011;60511;42.686;23.300;2023-04-03T05:48:30;4.82;;;2.33;;
43216;SDS011;60511;42.686;23.300;2023-04-03T05:50:31;4.90;;;1.95;;
43216;SDS011;60511;42.686;23.300;2023-04-03T05:52:33;2.78;;;2.28;;
43216;SDS011;60511;42.686;23.300;2023-04-03T05:54:36;2.72;;;1.73;;
43216;SDS011;60511;42.686;23.300;2023-04-03T05:56:36;5.90;;;2.20;;
43216;SDS011;60511;42.686;23.300;2023-04-03T05:58:37;3.42;;;2.10;;
43216;SDS011;60511;42.686;23.300;2023-04-03T06:00:37;2.95;;;2.20;;
43216;SDS011;60511;42.686;23.300;2023-04-03T06:02:37;4.20;;;2.05;;
43216;SDS011;60511;42.686;23.300;2023-04-03T06:04:38;3.03;;;2.25;;
43216;SDS011;60511;42.686;23.300;2023-04-03T06:10:53;5.40;;;2.40;;
43216;SDS011;60511;42.686;23.300;2023-04-03T06:12:53;2.45;;;1.95;;
43216;SDS011;60511;42.686;23.300;2023-04-03T06:14:54;3.63;;;2.40;;
43216;SDS011;60511;42.686;23.300;2023-04-03T06:16:54;3.10;;;2.70;;
43216;SDS011;60511;42.686;23.300;2023-04-03T06:18:54;3.15;;;2.28;;
43216;SDS011;60511;42.686;23.300;2023-04-03T06:20:56;2.53;;;2.08;;
43216;SDS011;60511;42.686;23.300;2023-04-03T06:22:56;4.35;;;2.70;;
43216;SDS011;60511;42.686;23.300;2023-04-03T06:24:57;2.83;;;2.53;;
43216;SDS011;60511;42.686;23.300;2023-04-03T06:26:58;3.50;;;2.58;;
43216;SDS011;60511;42.686;23.300;2023-04-03T06:28:59;2.70;;;2.50;;
43216;SDS011;60511;42.686;23.300;2023-04-03T06:30:59;2.53;;;2.10;;
43216;SDS011;60511;42.686;23.300;2023-04-03T06:33:00;3.45;;;2.60;;
43216;SDS011;60511;42.686;23.300;2023-04-03T06:35:00;4.28;;;2.38;;
43216;SDS011;60511;42.686;23.300;2023-04-03T06:37:01;3.20;;;2.58;;
43216;SDS011;60511;42.686;23.300;2023-04-03T06:39:02;3.28;;;2.60;;
43216;SDS011;60511;42.686;23.300;2023-04-03T06:41:03;3.97;;;2.33;;
43216;SDS011;60511;42.686;23.300;2023-04-03T06:43:03;2.58;;;2.33;;
43216;SDS011;60511;42.686;23.300;2023-04-03T06:45:05;5.18;;;3.13;;
43216;SDS011;60511;42.686;23.300;2023-04-03T06:47:06;4.20;;;2.78;;
43216;SDS011;60511;42.686;23.300;2023-04-03T06:49:06;3.67;;;3.05;;
43216;SDS011;60511;42.686;23.300;2023-04-03T06:51:23;5.07;;;3.17;;
43216;SDS011;60511;42.686;23.300;2023-04-03T06:53:28;3.03;;;2.70;;
43216;SDS011;60511;42.686;23.300;2023-04-03T06:55:28;3.20;;;2.72;;
43216;SDS011;60511;42.686;23.300;2023-04-03T06:57:29;4.18;;;3.17;;
43216;SDS011;60511;42.686;23.300;2023-04-03T06:59:29;4.97;;;3.42;;
43216;SDS011;60511;42.686;23.300;2023-04-03T07:01:30;4.07;;;3.30;;
43216;SDS011;60511;42.686;23.300;2023-04-03T07:03:30;3.67;;;3.30;;
43216;SDS011;60511;42.686;23.300;2023-04-03T07:05:31;5.68;;;3.53;;
43216;SDS011;60511;42.686;23.300;2023-04-03T07:07:31;3.22;;;2.92;;
43216;SDS011;60511;42.686;23.300;2023-04-03T07:09:34;4.70;;;3.38;;
43216;SDS011;60511;42.686;23.300;2023-04-03T07:11:34;4.95;;;3.42;;
43216;SDS011;60511;42.686;23.300;2023-04-03T07:13:36;4.28;;;3.22;;
43216;SDS011;60511;42.686;23.300;2023-04-03T07:15:36;4.90;;;3.63;;
43216;SDS011;60511;42.686;23.300;2023-04-03T07:17:37;4.15;;;3.65;;
43216;SDS011;60511;42.686;23.300;2023-04-03T07:19:37;4.72;;;3.70;;
43216;SDS011;60511;42.686;23.300;2023-04-03T07:21:38;4.72;;;3.78;;
43216;SDS011;60511;42.686;23.300;2023-04-03T07:23:38;4.68;;;3.33;;
43216;SDS011;60511;42.686;23.300;2023-04-03T07:25:43;4.32;;;3.17;;
43216;SDS011;60511;42.686;23.300;2023-04-03T07:27:44;4.10;;;3.55;;
43216;SDS011;60511;42.686;23.300;2023-04-03T07:29:45;5.20;;;3.47;;
43216;SDS011;60511;42.686;23.300;2023-04-03T07:31:48;4.55;;;3.70;;
43216;SDS011;60511;42.686;23.300;2023-04-03T07:33:49;4.25;;;3.80;;
43216;SDS011;60511;42.686;23.300;2023-04-03T07:35:50;5.07;;;3.53;;
43216;SDS011;60511;42.686;23.300;2023-04-03T07:37:52;5.07;;;3.45;;
43216;SDS011;60511;42.686;23.300;2023-04-03T07:39:53;4.70;;;3.33;;
43216;SDS011;60511;42.686;23.300;2023-04-03T07:41:55;4.10;;;3.45;;
43216;SDS011;60511;42.686;23.300;2023-04-03T07:43:56;4.18;;;3.30;;
43216;SDS011;60511;42.686;23.300;2023-04-03T07:45:56;3.55;;;3.17;;
43216;SDS011;60511;42.686;23.300;2023-04-03T07:47:57;5.05;;;3.20;;
43216;SDS011;60511;42.686;23.300;2023-04-03T07:49:57;3.85;;;3.45;;
43216;SDS011;60511;42.686;23.300;2023-04-03T07:51:58;5.75;;;3.40;;
43216;SDS011;60511;42.686;23.300;2023-04-03T07:53:58;5.07;;;3.63;;
43216;SDS011;60511;42.686;23.300;2023-04-03T07:55:59;4.93;;;3.92;;
43216;SDS011;60511;42.686;23.300;2023-04-03T07:58:00;4.57;;;3.80;;
43216;SDS011;60511;42.686;23.300;2023-04-03T08:00:00;4.22;;;3.83;;
43216;SDS011;60511;42.686;23.300;2023-04-03T08:02:01;4.28;;;3.88;;
43216;SDS011;60511;42.686;23.300;2023-04-03T08:04:04;4.22;;;3.25;;
43216;SDS011;60511;42.686;23.300;2023-04-03T08:06:07;4.78;;;3.72;;
43216;SDS011;60511;42.686;23.300;2023-04-03T08:08:09;4.53;;;3.42;;
43216;SDS011;60511;42.686;23.300;2023-04-03T08:10:11;5.38;;;3.78;;
43216;SDS011;60511;42.686;23.300;2023-04-03T08:12:12;5.00;;;3.70;;
43216;SDS011;60511;42.686;23.300;2023-04-03T08:14:14;5.07;;;3.53;;
43216;SDS011;60511;42.686;23.300;2023-04-03T08:16:20;4.53;;;3.90;;
43216;SDS011;60511;42.686;23.300;2023-04-03T08:18:21;4.60;;;3.78;;
43216;SDS011;60511;42.686;23.300;2023-04-03T08:20:24;3.93;;;3.13;;
43216;SDS011;60511;42.686;23.300;2023-04-03T08:22:25;4.43;;;3.42;;
43216;SDS011;60511;42.686;23.300;2023-04-03T08:24:26;5.32;;;4.18;;
43216;SDS011;60511;42.686;23.300;2023-04-03T08:26:26;4.65;;;3.47;;
43216;SDS011;60511;42.686;23.300;2023-04-03T08:28:27;5.53;;;4.05;;
43216;SDS011;60511;42.686;23.300;2023-04-03T08:30:27;4.20;;;3.80;;
43216;SDS011;60511;42.686;23.300;2023-04-03T08:32:28;4.65;;;3.70;;
43216;SDS011;60511;42.686;23.300;2023-04-03T08:34:30;4.80;;;4.10;;
43216;SDS011;60511;42.686;23.300;2023-04-03T08:36:34;4.38;;;3.83;;
43216;SDS011;60511;42.686;23.300;2023-04-03T08:38:35;5.95;;;3.78;;
43216;SDS011;60511;42.686;23.300;2023-04-03T08:40:37;4.68;;;3.65;;
43216;SDS011;60511;42.686;23.300;2023-04-03T08:45:01;5.25;;;3.80;;
43216;SDS011;60511;42.686;23.300;2023-04-03T08:47:18;6.38;;;4.82;;
43216;SDS011;60511;42.686;23.300;2023-04-03T08:52:08;5.07;;;3.97;;
43216;SDS011;60511;42.686;23.300;2023-04-03T08:54:17;4.45;;;4.00;;
43216;SDS011;60511;42.686;23.300;2023-04-03T08:56:24;6.88;;;4.30;;
43216;SDS011;60511;42.686;23.300;2023-04-03T08:58:26;6.72;;;4.75;;
43216;SDS011;60511;42.686;23.300;2023-04-03T09:02:55;5.07;;;4.45;;
43216;SDS011;60511;42.686;23.300;2023-04-03T09:04:56;6.47;;;4.28;;
43216;SDS011;60511;42.686;23.300;2023-04-03T09:07:17;5.82;;;4.05;;
43216;SDS011;60511;42.686;23.300;2023-04-03T09:09:37;6.38;;;4.30;;
43216;SDS011;60511;42.686;23.300;2023-04-03T09:16:03;6.10;;;3.90;;
43216;SDS011;60511;42.686;23.300;2023-04-03T09:18:30;4.72;;;4.22;;
43216;SDS011;60511;42.686;23.300;2023-04-03T09:22:47;6.57;;;4.32;;
43216;SDS011;60511;42.686;23.300;2023-04-03T09:25:08;5.45;;;4.32;;
43216;SDS011;60511;42.686;23.300;2023-04-03T09:27:14;6.55;;;4.93;;
43216;SDS011;60511;42.686;23.300;2023-04-03T09:29:17;5.13;;;3.97;;
43216;SDS011;60511;42.686;23.300;2023-04-03T09:33:23;5.82;;;4.32;;
43216;SDS011;60511;42.686;23.300;2023-04-03T09:35:27;4.53;;;4.00;;
43216;SDS011;60511;42.686;23.300;2023-04-03T09:37:34;5.13;;;4.10;;
43216;SDS011;60511;42.686;23.300;2023-04-03T09:39:52;5.03;;;3.90;;
43216;SDS011;60511;42.686;23.300;2023-04-03T09:42:01;4.45;;;4.03;;
43216;SDS011;60511;42.686;23.300;2023-04-03T09:44:24;4.13;;;3.72;;
43216;SDS011;60511;42.686;23.300;2023-04-03T09:46:44;5.55;;;4.35;;
43216;SDS011;60511;42.686;23.300;2023-04-03T09:48:52;7.10;;;4.63;;
43216;SDS011;60511;42.686;23.300;2023-04-03T09:50:57;6.07;;;4.30;;
43216;SDS011;60511;42.686;23.300;2023-04-03T09:53:01;4.97;;;3.95;;
43216;SDS011;60511;42.686;23.300;2023-04-03T09:55:07;4.88;;;4.43;;
43216;SDS011;60511;42.686;23.300;2023-04-03T09:57:13;5.43;;;4.60;;
43216;SDS011;60511;42.686;23.300;2023-04-03T09:59:14;6.28;;;4.53;;
43216;SDS011;60511;42.686;23.300;2023-04-03T10:03:34;4.82;;;4.03;;
43216;SDS011;60511;42.686;23.300;2023-04-03T10:05:37;5.78;;;4.65;;
43216;SDS011;60511;42.686;23.300;2023-04-03T10:07:39;6.47;;;4.57;;
43216;SDS011;60511;42.686;23.300;2023-04-03T10:09:40;4.95;;;4.50;;
43216;SDS011;60511;42.686;23.300;2023-04-03T10:12:01;5.57;;;4.22;;
43216;SDS011;60511;42.686;23.300;2023-04-03T10:14:10;5.18;;;4.47;;
43216;SDS011;60511;42.686;23.300;2023-04-03T10:16:27;5.47;;;4.20;;
43216;SDS011;60511;42.686;23.300;2023-04-03T10:18:41;5.85;;;4.32;;
43216;SDS011;60511;42.686;23.300;2023-04-03T10:23:54;5.13;;;4.50;;
43216;SDS011;60511;42.686;23.300;2023-04-03T10:33:39;7.78;;;4.28;;
43216;SDS011;60511;42.686;23.300;2023-04-03T10:36:08;5.13;;;4.10;;
43216;SDS011;60511;42.686;23.300;2023-04-03T10:38:31;7.80;;;4.70;;
43216;SDS011;60511;42.686;23.300;2023-04-03T10:41:08;4.72;;;4.18;;
43216;SDS011;60511;42.686;23.300;2023-04-03T10:45:49;4.68;;;4.00;;
43216;SDS011;60511;42.686;23.300;2023-04-03T10:50:46;5.47;;;4.28;;
43216;SDS011;60511;42.686;23.300;2023-04-03T10:57:21;5.25;;;4.25;;
43216;SDS011;60511;42.686;23.300;2023-04-03T10:59:26;5.22;;;4.05;;
43216;SDS011;60511;42.686;23.300;2023-04-03T11:01:35;5.97;;;4.07;;
43216;SDS011;60511;42.686;23.300;2023-04-03T11:03:41;5.15;;;3.88;;
43216;SDS011;60511;42.686;23.300;2023-04-03T11:06:05;4.90;;;4.40;;
43216;SDS011;60511;42.686;23.300;2023-04-03T11:08:25;5.10;;;4.45;;
43216;SDS011;60511;42.686;23.300;2023-04-03T11:10:35;5.05;;;4.20;;
43216;SDS011;60511;42.686;23.300;2023-04-03T11:12:46;4.90;;;4.40;;
43216;SDS011;60511;42.686;23.300;2023-04-03T11:14:49;4.78;;;4.22;;
43216;SDS011;60511;42.686;23.300;2023-04-03T11:17:35;6.13;;;4.43;;
43216;SDS011;60511;42.686;23.300;2023-04-03T11:23:29;4.97;;;3.78;;
43216;SDS011;60511;42.686;23.300;2023-04-03T11:25:34;4.80;;;3.95;;
43216;SDS011;60511;42.686;23.300;2023-04-03T11:27:41;4.38;;;3.97;;
43216;SDS011;60511;42.686;23.300;2023-04-03T11:29:45;6.57;;;3.75;;
43216;SDS011;60511;42.686;23.300;2023-04-03T11:34:14;5.43;;;4.65;;
43216;SDS011;60511;42.686;23.300;2023-04-03T11:38:26;4.95;;;4.47;;
43216;SDS011;60511;42.686;23.300;2023-04-03T11:40:31;4.95;;;4.00;;
43216;SDS011;60511;42.686;23.300;2023-04-03T11:42:37;4.88;;;4.10;;
43216;SDS011;60511;42.686;23.300;2023-04-03T11:44:40;4.22;;;3.70;;
43216;SDS011;60511;42.686;23.300;2023-04-03T11:46:54;5.10;;;3.90;;
43216;SDS011;60511;42.686;23.300;2023-04-03T11:48:57;3.83;;;3.20;;
43216;SDS011;60511;42.686;23.300;2023-04-03T11:50:57;5.55;;;3.90;;
43216;SDS011;60511;42.686;23.300;2023-04-03T12:02:43;4.72;;;4.00;;
43216;SDS011;60511;42.686;23.300;2023-04-03T12:04:48;4.72;;;4.13;;
43216;SDS011;60511;42.686;23.300;2023-04-03T12:07:23;4.28;;;3.70;;
43216;SDS011;60511;42.686;23.300;2023-04-03T12:11:54;5.18;;;4.05;;
43216;SDS011;60511;42.686;23.300;2023-04-03T12:15:56;4.57;;;3.63;;
43216;SDS011;60511;42.686;23.300;2023-04-03T12:18:00;4.28;;;3.28;;
43216;SDS011;60511;42.686;23.300;2023-04-03T12:23:07;4.93;;;3.83;;
43216;SDS011;60511;42.686;23.300;2023-04-03T12:25:40;3.35;;;3.05;;
43216;SDS011;60511;42.686;23.300;2023-04-03T12:27:49;4.40;;;2.97;;
43216;SDS011;60511;42.686;23.300;2023-04-03T12:37:48;3.40;;;3.10;;
43216;SDS011;60511;42.686;23.300;2023-04-03T12:41:50;3.20;;;2.90;;
43216;SDS011;60511;42.686;23.300;2023-04-03T12:46:28;3.47;;;3.00;;
43216;SDS011;60511;42.686;23.300;2023-04-03T12:48:47;3.63;;;2.97;;
43216;SDS011;60511;42.686;23.300;2023-04-03T12:50:51;4.15;;;3.30;;
43216;SDS011;60511;42.686;23.300;2023-04-03T12:52:54;3.35;;;3.05;;
43216;SDS011;60511;42.686;23.300;2023-04-03T12:54:56;4.15;;;3.10;;
43216;SDS011;60511;42.686;23.300;2023-04-03T12:59:23;3.35;;;2.85;;
43216;SDS011;60511;42.686;23.300;2023-04-03T13:01:25;3.40;;;2.70;;
43216;SDS011;60511;42.686;23.300;2023-04-03T13:03:26;3.70;;;2.92;;
43216;SDS011;60511;42.686;23.300;2023-04-03T13:05:27;3.65;;;3.00;;
43216;SDS011;60511;42.686;23.300;2023-04-03T13:07:32;4.25;;;3.13;;
43216;SDS011;60511;42.686;23.300;2023-04-03T13:09:37;3.72;;;3.13;;
43216;SDS011;60511;42.686;23.300;2023-04-03T13:11:38;4.10;;;3.17;;
43216;SDS011;60511;42.686;23.300;2023-04-03T13:13:53;5.80;;;2.95;;
43216;SDS011;60511;42.686;23.300;2023-04-03T13:16:11;3.03;;;2.40;;
43216;SDS011;60511;42.686;23.300;2023-04-03T13:18:33;2.80;;;2.58;;
43216;SDS011;60511;42.686;23.300;2023-04-03T13:20:35;3.25;;;2.95;;
43216;SDS011;60511;42.686;23.300;2023-04-03T13:22:38;2.40;;;2.20;;
43216;SDS011;60511;42.686;23.300;2023-04-03T13:24:47;3.78;;;2.40;;
43216;SDS011;60511;42.686;23.300;2023-04-03T13:26:49;3.50;;;2.87;;
43216;SDS011;60511;42.686;23.300;2023-04-03T13:28:52;4.17;;;2.67;;
43216;SDS011;60511;42.686;23.300;2023-04-03T13:33:00;3.15;;;2.35;;
43216;SDS011;60511;42.686;23.300;2023-04-03T13:35:23;2.80;;;2.40;;
43216;SDS011;60511;42.686;23.300;2023-04-03T13:37:28;3.40;;;2.35;;
43216;SDS011;60511;42.686;23.300;2023-04-03T13:39:31;4.50;;;3.05;;
43216;SDS011;60511;42.686;23.300;2023-04-03T13:41:36;3.42;;;2.55;;
43216;SDS011;60511;42.686;23.300;2023-04-03T13:45:39;2.65;;;2.20;;